Time;durP1;ratioP1;P1;durP2;ratioP2;P2;SDS_P1;SDS_P2;PMS_P1;PMS_P2;Temp;Humidity;BMP_temperature;BMP_pressure;BME280_temperature;BME280_humidity;BME280_pressure;Samples;Min_cycle;Max_cycle;Signal;HPM_P1;HPM_P2
2021/09/25 00:04:22;;;;;;;;;;;;;;;;;;10274599;28;19920;-56
2021/09/25 00:09:20;;;;;;;;;;;;;;;;;;10277179;28;19920;-55
2021/09/25 00:14:18;;;;;;;;;;;;;;;;;;10282518;28;19921;-56
2021/09/25 00:19:16;;;;;;;;;;;;;;;;;;10282380;28;19967;-55
2021/09/25 00:24:15;;;;;;;;;;;;;;;;;;10282207;28;19992;-57
2021/09/25 00:29:13;;;;;;;;;;;;;;;;;;10282702;28;20313;-57
2021/09/25 00:34:11;;;;;;;;;;;;;;;;;;10281919;28;19960;-57
2021/09/25 00:39:09;;;;;;;;;;;;;;;;;;10282266;28;19983;-56
2021/09/25 00:44:07;;;;;;;;;;;;;;;;;;10282018;28;19928;-57
2021/09/25 00:49:05;;;;;;;;;;;;;;;;;;10281281;28;19920;-55
2021/09/25 00:54:03;;;;;;;;;;;;;;;;;;10281339;28;19995;-55
2021/09/25 00:59:01;;;;;;;;;;;;;;;;;;10281236;28;20396;-56
2021/09/25 01:03:59;;;;;;;;;;;;;;;;;;10281122;28;20294;-57
2021/09/25 01:08:57;;;;;;;;;;;;;;;;;;10280464;28;19971;-55
2021/09/25 01:13:55;;;;;;;;;;;;;;;;;;10280495;28;19964;-54
2021/09/25 01:18:53;;;;;;;;;;;;;;;;;;10279138;28;19960;-57
2021/09/25 01:23:51;;;;;;;;;;;;;;;;;;10280475;28;19921;-55
2021/09/25 01:28:49;;;;;;;;;;;;;;;;;;10280054;28;19920;-57
2021/09/25 01:33:47;;;;;;;;;;;;;;;;;;10280239;28;19921;-54
2021/09/25 01:38:45;;;;;;;;;;;;;;;;;;10279870;28;19964;-54
2021/09/25 01:43:43;;;;;;;;;;;;;;;;;;10279423;28;19947;-55
2021/09/25 01:48:41;;;;;;;;;;;;;;;;;;10279827;28;19970;-54
2021/09/25 01:53:39;;;;;;;;;;;;;;;;;;10278486;28;19943;-55
2021/09/25 01:58:37;;;;;;;;;;;;;;;;;;10278370;28;20329;-54
2021/09/25 02:03:36;;;;;;;;;;;;;;;;;;10278912;28;20306;-54
2021/09/25 02:08:34;;;;;;;;;;;;;;;;;;10278850;28;19994;-54
2021/09/25 02:13:32;;;;;;;;;;;;;;;;;;10278226;28;19921;-56
2021/09/25 02:18:30;;;;;;;;;;;;;;;;;;10278269;28;19964;-56
2021/09/25 02:23:28;;;;;;;;;;;;;;;;;;10278051;28;19928;-55
2021/09/25 02:28:26;;;;;;;;;;;;;;;;;;10277702;28;19963;-55
2021/09/25 02:33:24;;;;;;;;;;;;;;;;;;10277400;28;19921;-55
2021/09/25 02:38:22;;;;;;;;;;;;;;;;;;10277482;28;19974;-55
2021/09/25 02:43:20;;;;;;;;;;;;;;;;;;10276491;28;19920;-55
2021/09/25 02:48:18;;;;;;;;;;;;;;;;;;10277641;28;19921;-55
2021/09/25 02:53:16;;;;;;;;;;;;;;;;;;10276865;28;19921;-55
2021/09/25 02:58:14;;;;;;;;;;;;;;;;;;10276367;28;20360;-55
2021/09/25 03:03:12;;;;;;;;;;;;;;;;;;10276207;28;19921;-54
2021/09/25 03:08:11;;;;;;;;;;;;;;;;;;10276307;28;19920;-55
2021/09/25 03:13:09;;;;;;;;;;;;;;;;;;10275649;28;19964;-55
2021/09/25 03:18:07;;;;;;;;;;;;;;;;;;10276199;28;19963;-55
2021/09/25 03:23:05;;;;;;;;;;;;;;;;;;10275430;28;19986;-55
2021/09/25 03:28:03;;;;;;;;;;;;;;;;;;10275796;28;19976;-54
2021/09/25 03:33:01;;;;;;;;;;;;;;;;;;10275177;28;19928;-56
2021/09/25 03:38:00;;;;;;;;;;;;;;;;;;10274928;28;19970;-54
2021/09/25 03:42:58;;;;;;;;;;;;;;;;;;10275533;28;19921;-54
2021/09/25 03:47:59;;;;;;;;;;;;;;;;;;10283173;28;19925;-54
2021/09/25 03:52:57;;;;;;;;;;;;;;;;;;10283754;28;19925;-56
2021/09/25 03:57:56;;;;;;;;;;;;;;;;;;10283266;28;19983;-53
2021/09/25 04:02:53;;;;;;;;;;;;;;;;;;10283422;28;20397;-55
2021/09/25 04:07:52;;;;;;;;;;;;;;;;;;10283104;28;20298;-55
2021/09/25 04:12:50;;;;;;;;;;;;;;;;;;10282826;28;19947;-55
2021/09/25 04:17:48;;;;;;;;;;;;;;;;;;10282728;28;19979;-56
2021/09/25 04:22:46;;;;;;;;;;;;;;;;;;10282591;28;19928;-55
2021/09/25 04:27:44;;;;;;;;;;;;;;;;;;10282710;28;19927;-55
2021/09/25 04:32:43;;;;;;;;;;;;;;;;;;10282475;28;19921;-53
2021/09/25 04:37:41;;;;;;;;;;;;;;;;;;10282016;28;19960;-54
2021/09/25 04:42:39;;;;;;;;;;;;;;;;;;10281707;28;19964;-55
2021/09/25 04:47:37;;;;;;;;;;;;;;;;;;10281418;28;19928;-56
2021/09/25 04:52:35;;;;;;;;;;;;;;;;;;10281420;28;20302;-54
2021/09/25 04:57:33;;;;;;;;;;;;;;;;;;10280839;28;20412;-53
2021/09/25 05:02:31;;;;;;;;;;;;;;;;;;10281209;28;19927;-56
2021/09/25 05:07:29;;;;;;;;;;;;;;;;;;10280741;28;19928;-55
2021/09/25 05:12:27;;;;;;;;;;;;;;;;;;10280031;28;19921;-55
2021/09/25 05:17:25;;;;;;;;;;;;;;;;;;10280244;28;19925;-54
2021/09/25 05:22:23;;;;;;;;;;;;;;;;;;10280422;28;19963;-55
2021/09/25 05:27:21;;;;;;;;;;;;;;;;;;10280108;28;20087;-54
2021/09/25 05:32:19;;;;;;;;;;;;;;;;;;10279856;28;19952;-55
2021/09/25 05:37:17;;;;;;;;;;;;;;;;;;10279652;28;20322;-56
2021/09/25 05:42:15;;;;;;;;;;;;;;;;;;10279750;28;19972;-56
2021/09/25 05:47:14;;;;;;;;;;;;;;;;;;10279683;28;20414;-56
2021/09/25 05:52:12;;;;;;;;;;;;;;;;;;10279431;28;19968;-55
2021/09/25 05:57:10;;;;;;;;;;;;;;;;;;10278363;28;19928;-56
2021/09/25 06:02:08;;;;;;;;;;;;;;;;;;10279798;28;20038;-54
2021/09/25 06:07:08;;;;;;;;;;;;;;;;;;10277998;28;20418;-55
2021/09/25 06:12:06;;;;;;;;;;;;;;;;;;10279805;28;19979;-56
2021/09/25 06:17:04;;;;;;;;;;;;;;;;;;10279607;28;19972;-54
2021/09/25 06:22:02;;;;;;;;;;;;;;;;;;10277347;28;19959;-54
2021/09/25 06:27:00;;;;;;;;;;;;;;;;;;10278402;28;19921;-54
2021/09/25 06:31:58;;;;;;;;;;;;;;;;;;10278739;28;19958;-56
2021/09/25 06:36:56;;;;;;;;;;;;;;;;;;10277300;28;19960;-54
2021/09/25 06:41:54;;;;;;;;;;;;;;;;;;10278241;28;19967;-56
2021/09/25 06:46:52;;;;;;;;;;;;;;;;;;10277422;28;19963;-54
2021/09/25 06:51:50;;;;;;;;;;;;;;;;;;10278044;28;19921;-55
2021/09/25 06:56:48;;;;;;;;;;;;;;;;;;10277698;28;19963;-56
2021/09/25 07:01:46;;;;;;;;;;;;;;;;;;10275291;28;19967;-55
2021/09/25 07:06:45;;;;;;;;;;;;;;;;;;10273884;28;19955;-54
2021/09/25 07:11:43;;;;;;;;;;;;;;;;;;10289728;28;19962;-56
2021/09/25 07:16:41;;;;;;;;;;;;;;;;;;10315816;28;19951;-55
2021/09/25 07:21:39;;;;;;;;;;;;;;;;;;10316599;28;20419;-55
2021/09/25 07:26:37;;;;;;;;;;;;;;;;;;10316317;28;19935;-56
2021/09/25 07:31:35;;;;;;;;;;;;;;;;;;10316907;28;19927;-56
2021/09/25 07:36:34;;;;;;;;;;;;;;;;;;10316498;28;19939;-55
2021/09/25 07:41:32;;;;;;;;;;;;;;;;;;10315804;28;19948;-57
2021/09/25 07:46:30;;;;;;;;;;;;;;;;;;10297228;28;19920;-57
2021/09/25 07:51:28;;;;;;;;;;;;;;;;;;10315838;28;19935;-56
2021/09/25 07:56:26;;;;;;;;;;;;;;;;;;10315755;28;19927;-56
2021/09/25 08:01:24;;;;;;;;;;;;;;;;;;10316245;28;20362;-57
2021/09/25 08:06:22;;;;;;;;;;;;;;;;;;10315305;28;19955;-54
2021/09/25 08:11:20;;;;;;;;;;;;;;;;;;10315546;28;19963;-56
2021/09/25 08:16:18;;;;;;;;;;;;;;;;;;10314891;28;19951;-54
2021/09/25 08:21:16;;;;;;;;;;;;;;;;;;10315939;28;19959;-57
2021/09/25 08:26:14;;;;;;;;;;;;;;;;;;10315647;28;19920;-53
2021/09/25 08:31:12;;;;;;;;;;;;;;;;;;10318874;28;19955;-57
2021/09/25 08:36:10;;;;;;;;;;;;;;;;;;10322024;28;19959;-56
2021/09/25 08:41:08;;;;;;;;;;;;;;;;;;10312538;28;19967;-56
2021/09/25 08:46:06;;;;;;;;;;;;;;;;;;10310632;28;19963;-55
2021/09/25 08:51:04;;;;;;;;;;;;;;;;;;10292781;28;19964;-57
2021/09/25 08:56:02;;;;;;;;;;;;;;;;;;10314455;28;19967;-57
2021/09/25 09:01:00;;;;;;;;;;;;;;;;;;10314504;28;20376;-56
2021/09/25 09:05:58;;;;;;;;;;;;;;;;;;10306994;28;19964;-57
2021/09/25 09:10:57;;;;;;;;;;;;;;;;;;10309157;28;19924;-55
2021/09/25 09:15:55;;;;;;;;;;;;;;;;;;10320681;28;19963;-57
2021/09/25 09:20:53;;;;;;;;;;;;;;;;;;10317604;28;19959;-57
2021/09/25 09:25:51;;;;;;;;;;;;;;;;;;10316545;28;19948;-58
2021/09/25 09:30:49;;;;;;;;;;;;;;;;;;10320258;28;19970;-57
2021/09/25 09:35:47;;;;;;;;;;;;;;;;;;10313973;28;19971;-56
2021/09/25 09:40:45;;;;;;;;;;;;;;;;;;10315069;28;19951;-57
2021/09/25 09:45:43;;;;;;;;;;;;;;;;;;10308858;28;19952;-56
2021/09/25 09:50:42;;;;;;;;;;;;;;;;;;10312274;28;19975;-55
2021/09/25 09:55:40;;;;;;;;;;;;;;;;;;10303909;28;19951;-55
2021/09/25 10:00:38;;;;;;;;;;;;;;;;;;10313797;28;19966;-56
2021/09/25 10:05:36;;;;;;;;;;;;;;;;;;10317941;28;20338;-53
2021/09/25 10:10:34;;;;;;;;;;;;;;;;;;10313198;28;19955;-55
2021/09/25 10:15:32;;;;;;;;;;;;;;;;;;10312998;28;19955;-53
2021/09/25 10:20:30;;;;;;;;;;;;;;;;;;10310846;28;19963;-59
2021/09/25 10:25:29;;;;;;;;;;;;;;;;;;10316596;28;19967;-58
2021/09/25 10:30:27;;;;;;;;;;;;;;;;;;10310093;28;19967;-53
2021/09/25 10:35:25;;;;;;;;;;;;;;;;;;10303631;28;19963;-55
2021/09/25 10:40:23;;;;;;;;;;;;;;;;;;10308454;28;19960;-54
2021/09/25 10:45:22;;;;;;;;;;;;;;;;;;10312361;28;19959;-56
2021/09/25 10:50:20;;;;;;;;;;;;;;;;;;10304189;28;19962;-55
2021/09/25 10:55:18;;;;;;;;;;;;;;;;;;10308321;28;19956;-52
2021/09/25 11:00:16;;;;;;;;;;;;;;;;;;10296126;28;19979;-57
2021/09/25 11:05:14;;;;;;;;;;;;;;;;;;10311108;28;19947;-57
2021/09/25 11:10:12;;;;;;;;;;;;;;;;;;10312508;28;19960;-57
2021/09/25 11:15:10;;;;;;;;;;;;;;;;;;10311714;28;19955;-58
2021/09/25 11:20:09;;;;;;;;;;;;;;;;;;10314995;28;19966;-58
2021/09/25 11:25:07;;;;;;;;;;;;;;;;;;10312813;28;19951;-57
2021/09/25 11:30:05;;;;;;;;;;;;;;;;;;10312794;28;19963;-56
2021/09/25 11:35:03;;;;;;;;;;;;;;;;;;10311265;28;19958;-55
2021/09/25 11:40:01;;;;;;;;;;;;;;;;;;10315267;28;19964;-55
2021/09/25 11:44:59;;;;;;;;;;;;;;;;;;10314691;28;19955;-56
2021/09/25 11:49:57;;;;;;;;;;;;;;;;;;10316281;28;20195;-57
2021/09/25 11:54:55;;;;;;;;;;;;;;;;;;10315540;28;19920;-55
2021/09/25 11:59:53;;;;;;;;;;;;;;;;;;10315878;28;19967;-56
2021/09/25 12:04:51;;;;;;;;;;;;;;;;;;10316325;28;20296;-57
2021/09/25 12:09:50;;;;;;;;;;;;;;;;;;10324109;28;19947;-56
2021/09/25 12:14:48;;;;;;;;;;;;;;;;;;10322991;28;19964;-55
2021/09/25 12:19:46;;;;;;;;;;;;;;;;;;10323085;28;19968;-55
2021/09/25 12:24:44;;;;;;;;;;;;;;;;;;10321956;28;19971;-55
2021/09/25 12:29:42;;;;;;;;;;;;;;;;;;10320582;28;19962;-56
2021/09/25 12:34:40;;;;;;;;;;;;;;;;;;10320813;28;20378;-54
2021/09/25 12:39:44;;;;;;;;;;;;;;;;;;10304400;28;19943;-57
2021/09/25 12:44:42;;;;;;;;;;;;;;;;;;10320781;28;19952;-56
2021/09/25 12:49:40;;;;;;;;;;;;;;;;;;10321975;28;19920;-56
2021/09/25 12:54:38;;;;;;;;;;;;;;;;;;10315525;28;19956;-55
2021/09/25 12:59:36;;;;;;;;;;;;;;;;;;10317095;28;19951;-54
2021/09/25 13:04:34;;;;;;;;;;;;;;;;;;10319711;28;19920;-56
2021/09/25 13:09:32;;;;;;;;;;;;;;;;;;10316867;28;19952;-57
2021/09/25 13:14:30;;;;;;;;;;;;;;;;;;10316722;28;19963;-57
2021/09/25 13:19:28;;;;;;;;;;;;;;;;;;10298761;28;19971;-57
2021/09/25 13:24:26;;;;;;;;;;;;;;;;;;10316347;28;20389;-57
2021/09/25 13:29:24;;;;;;;;;;;;;;;;;;10317160;28;19955;-58
2021/09/25 13:34:22;;;;;;;;;;;;;;;;;;10320279;28;19920;-55
2021/09/25 13:39:20;;;;;;;;;;;;;;;;;;10319992;28;19960;-56
2021/09/25 13:44:18;;;;;;;;;;;;;;;;;;10319845;28;20368;-55
2021/09/25 13:49:17;;;;;;;;;;;;;;;;;;10320344;28;20380;-56
2021/09/25 13:54:15;;;;;;;;;;;;;;;;;;10319985;28;20046;-57
2021/09/25 13:59:13;;;;;;;;;;;;;;;;;;10319778;28;19943;-56
2021/09/25 14:04:11;;;;;;;;;;;;;;;;;;10319234;28;19963;-56
2021/09/25 14:09:09;;;;;;;;;;;;;;;;;;10319447;28;19990;-57
2021/09/25 14:14:07;;;;;;;;;;;;;;;;;;10319060;28;19960;-56
2021/09/25 14:19:05;;;;;;;;;;;;;;;;;;10301309;28;19928;-55
2021/09/25 14:24:03;;;;;;;;;;;;;;;;;;10319339;28;20024;-54
2021/09/25 14:29:04;;;;;;;;;;;;;;;;;;10318155;28;19929;-56
2021/09/25 14:34:02;;;;;;;;;;;;;;;;;;10318283;28;20304;-56
2021/09/25 14:39:00;;;;;;;;;;;;;;;;;;10318327;28;20365;-56
2021/09/25 14:43:58;;;;;;;;;;;;;;;;;;10317505;28;19955;-58
2021/09/25 14:48:56;;;;;;;;;;;;;;;;;;10317379;28;20369;-56
2021/09/25 14:53:54;;;;;;;;;;;;;;;;;;10317171;28;20388;-58
2021/09/25 14:58:53;;;;;;;;;;;;;;;;;;10317455;28;19921;-58
2021/09/25 15:03:51;;;;;;;;;;;;;;;;;;10317317;28;19959;-58
2021/09/25 15:08:49;;;;;;;;;;;;;;;;;;10316525;28;19951;-57
2021/09/25 15:13:47;;;;;;;;;;;;;;;;;;10316947;28;19931;-57
2021/09/25 15:18:45;;;;;;;;;;;;;;;;;;10316931;28;19928;-57
2021/09/25 15:23:43;;;;;;;;;;;;;;;;;;10316604;28;19959;-57
2021/09/25 15:28:42;;;;;;;;;;;;;;;;;;10316761;28;19921;-57
2021/09/25 15:33:41;;;;;;;;;;;;;;;;;;10316408;28;19982;-58
2021/09/25 15:38:39;;;;;;;;;;;;;;;;;;10316132;28;19951;-57
2021/09/25 15:43:37;;;;;;;;;;;;;;;;;;10316016;28;19966;-54
2021/09/25 15:48:35;;;;;;;;;;;;;;;;;;10315222;28;19920;-55
2021/09/25 15:53:33;;;;;;;;;;;;;;;;;;10315366;28;19967;-56
2021/09/25 15:58:31;;;;;;;;;;;;;;;;;;10315783;28;19927;-56
2021/09/25 16:03:29;;;;;;;;;;;;;;;;;;10315695;28;19975;-57
2021/09/25 16:08:27;;;;;;;;;;;;;;;;;;10315572;28;19958;-55
2021/09/25 16:13:25;;;;;;;;;;;;;;;;;;10315120;28;19920;-54
2021/09/25 16:18:23;;;;;;;;;;;;;;;;;;10315349;28;19948;-54
2021/09/25 16:23:24;;;;;;;;;;;;;;;;;;10315168;28;19963;-56
2021/09/25 16:28:22;;;;;;;;;;;;;;;;;;10315856;28;19920;-58
2021/09/25 16:33:20;;;;;;;;;;;;;;;;;;10314661;28;19928;-54
2021/09/25 16:38:18;;;;;;;;;;;;;;;;;;10314861;28;19963;-56
2021/09/25 16:43:16;;;;;;;;;;;;;;;;;;10314639;28;19994;-54
2021/09/25 16:48:14;;;;;;;;;;;;;;;;;;10314277;28;19986;-54
2021/09/25 16:53:12;;;;;;;;;;;;;;;;;;10318334;28;19928;-56
2021/09/25 16:58:10;;;;;;;;;;;;;;;;;;10321939;28;19920;-53
2021/09/25 17:03:08;;;;;;;;;;;;;;;;;;10321344;28;19967;-57
2021/09/25 17:08:06;;;;;;;;;;;;;;;;;;10321736;28;19927;-53
2021/09/25 17:13:04;;;;;;;;;;;;;;;;;;10320577;28;19966;-52
2021/09/25 17:18:02;;;;;;;;;;;;;;;;;;10320952;28;20381;-55
2021/09/25 17:23:03;;;;;;;;;;;;;;;;;;10321399;28;20069;-54
2021/09/25 17:28:01;;;;;;;;;;;;;;;;;;10321656;28;20384;-54
2021/09/25 17:32:59;;;;;;;;;;;;;;;;;;10320032;28;20376;-53
2021/09/25 17:37:58;;;;;;;;;;;;;;;;;;10320529;28;20321;-56
2021/09/25 17:42:56;;;;;;;;;;;;;;;;;;10320685;28;19962;-56
2021/09/25 17:47:54;;;;;;;;;;;;;;;;;;10321636;28;20352;-52
2021/09/25 17:52:53;;;;;;;;;;;;;;;;;;10319560;28;19962;-54
2021/09/25 17:57:51;;;;;;;;;;;;;;;;;;10320000;28;19921;-55
2021/09/25 18:02:49;;;;;;;;;;;;;;;;;;10317536;28;20174;-54
2021/09/25 18:07:47;;;;;;;;;;;;;;;;;;10319992;28;20020;-53
2021/09/25 18:12:45;;;;;;;;;;;;;;;;;;10319320;28;19920;-56
2021/09/25 18:17:43;;;;;;;;;;;;;;;;;;10319322;28;19928;-56
2021/09/25 18:22:41;;;;;;;;;;;;;;;;;;10318829;28;20416;-55
2021/09/25 18:27:39;;;;;;;;;;;;;;;;;;10319700;28;19920;-55
2021/09/25 18:32:41;;;;;;;;;;;;;;;;;;10318086;28;19936;-55
2021/09/25 18:37:39;;;;;;;;;;;;;;;;;;10318520;28;19988;-54
2021/09/25 18:42:37;;;;;;;;;;;;;;;;;;10317323;28;19968;-56
2021/09/25 18:47:36;;;;;;;;;;;;;;;;;;10319034;28;19927;-55
2021/09/25 18:52:34;;;;;;;;;;;;;;;;;;10317826;28;20381;-53
2021/09/25 18:57:34;;;;;;;;;;;;;;;;;;10317641;28;20364;-54
2021/09/25 19:02:32;;;;;;;;;;;;;;;;;;10317307;28;19982;-55
2021/09/25 19:07:30;;;;;;;;;;;;;;;;;;10317804;28;19948;-56
2021/09/25 19:12:29;;;;;;;;;;;;;;;;;;10316214;28;19928;-53
2021/09/25 19:17:26;;;;;;;;;;;;;;;;;;10316536;28;20385;-55
2021/09/25 19:22:25;;;;;;;;;;;;;;;;;;10316796;28;19952;-54
2021/09/25 19:27:23;;;;;;;;;;;;;;;;;;10301560;28;19960;-55
2021/09/25 19:32:21;;;;;;;;;;;;;;;;;;10290217;28;19971;-54
2021/09/25 19:37:19;;;;;;;;;;;;;;;;;;10285373;28;19971;-53
2021/09/25 19:42:17;;;;;;;;;;;;;;;;;;10293040;28;20399;-54
2021/09/25 19:47:15;;;;;;;;;;;;;;;;;;10312423;28;19998;-52
2021/09/25 19:52:13;;;;;;;;;;;;;;;;;;10311130;28;19959;-55
2021/09/25 19:57:11;;;;;;;;;;;;;;;;;;10311539;28;19963;-53
2021/09/25 20:02:09;;;;;;;;;;;;;;;;;;10312510;28;19956;-53
2021/09/25 20:07:07;;;;;;;;;;;;;;;;;;10310620;28;19924;-52
2021/09/25 20:12:06;;;;;;;;;;;;;;;;;;10315173;28;20308;-51
2021/09/25 20:17:04;;;;;;;;;;;;;;;;;;10313147;28;20360;-54
2021/09/25 20:22:02;;;;;;;;;;;;;;;;;;10310443;28;20392;-55
2021/09/25 20:27:00;;;;;;;;;;;;;;;;;;10310140;28;20419;-57
2021/09/25 20:31:58;;;;;;;;;;;;;;;;;;10321773;28;19970;-55
2021/09/25 20:36:56;;;;;;;;;;;;;;;;;;10313399;28;19967;-54
2021/09/25 20:41:54;;;;;;;;;;;;;;;;;;10318069;28;19982;-54
2021/09/25 20:46:52;;;;;;;;;;;;;;;;;;10308998;28;19967;-55
2021/09/25 20:51:50;;;;;;;;;;;;;;;;;;10317194;28;19920;-56
2021/09/25 20:56:48;;;;;;;;;;;;;;;;;;10315267;28;19956;-54
2021/09/25 21:01:46;;;;;;;;;;;;;;;;;;10307653;28;19952;-54
2021/09/25 21:06:45;;;;;;;;;;;;;;;;;;10321050;28;19956;-56
2021/09/25 21:11:43;;;;;;;;;;;;;;;;;;10321523;28;19920;-56
2021/09/25 21:16:41;;;;;;;;;;;;;;;;;;10321361;28;19928;-55
2021/09/25 21:21:39;;;;;;;;;;;;;;;;;;10321582;28;20385;-54
2021/09/25 21:26:37;;;;;;;;;;;;;;;;;;10302711;28;20374;-55
2021/09/25 21:31:35;;;;;;;;;;;;;;;;;;10301143;28;19967;-55
2021/09/25 21:36:34;;;;;;;;;;;;;;;;;;10292036;28;20413;-53
2021/09/25 21:41:32;;;;;;;;;;;;;;;;;;10295483;28;19920;-55
2021/09/25 21:46:30;;;;;;;;;;;;;;;;;;10296218;28;19956;-53
2021/09/25 21:51:29;;;;;;;;;;;;;;;;;;10302192;28;19959;-54
2021/09/25 21:56:27;;;;;;;;;;;;;;;;;;10295061;28;20366;-55
2021/09/25 22:01:25;;;;;;;;;;;;;;;;;;10288012;28;19963;-55
2021/09/25 22:06:23;;;;;;;;;;;;;;;;;;10289363;28;20439;-51
2021/09/25 22:11:21;;;;;;;;;;;;;;;;;;10312733;28;19982;-55
2021/09/25 22:16:19;;;;;;;;;;;;;;;;;;10300878;28;19963;-54
2021/09/25 22:21:17;;;;;;;;;;;;;;;;;;10297400;28;19920;-56
2021/09/25 22:26:16;;;;;;;;;;;;;;;;;;10289173;28;19970;-53
2021/09/25 22:31:15;;;;;;;;;;;;;;;;;;10296215;28;19963;-56
2021/09/25 22:36:16;;;;;;;;;;;;;;;;;;10289243;28;19974;-54
2021/09/25 22:41:14;;;;;;;;;;;;;;;;;;10312584;28;20361;-54
2021/09/25 22:46:12;;;;;;;;;;;;;;;;;;10291011;28;19951;-54
2021/09/25 22:51:10;;;;;;;;;;;;;;;;;;10291809;28;19928;-55
2021/09/25 22:56:08;;;;;;;;;;;;;;;;;;10317294;28;19960;-56
2021/09/25 23:01:07;;;;;;;;;;;;;;;;;;10317353;28;19920;-53
2021/09/25 23:06:05;;;;;;;;;;;;;;;;;;10296954;28;19955;-56
2021/09/25 23:11:04;;;;;;;;;;;;;;;;;;10287573;28;19921;-54
2021/09/25 23:16:02;;;;;;;;;;;;;;;;;;10316259;28;19966;-54
2021/09/25 23:21:00;;;;;;;;;;;;;;;;;;10301697;28;19967;-56
2021/09/25 23:25:58;;;;;;;;;;;;;;;;;;10298028;28;20390;-53
2021/09/25 23:30:56;;;;;;;;;;;;;;;;;;10316998;28;19920;-50
2021/09/25 23:35:54;;;;;;;;;;;;;;;;;;10308706;28;19955;-55
2021/09/25 23:40:53;;;;;;;;;;;;;;;;;;10298837;28;19947;-56
2021/09/25 23:45:51;;;;;;;;;;;;;;;;;;10315794;28;19955;-55
2021/09/25 23:50:49;;;;;;;;;;;;;;;;;;10296171;28;19955;-54
2021/09/25 23:55:47;;;;;;;;;;;;;;;;;;10315226;28;19931;-55
